sensor_id;sensor_type;location;lat;lon;timestamp;P1;durP1;ratioP1;P2;durP2;ratioP2
51732;SDS011;39139;53.144;6.244;2024-01-06T00:00:29;24.02;;;20.33;;
51732;SDS011;39139;53.144;6.244;2024-01-06T00:02:55;28.77;;;22.38;;
51732;SDS011;39139;53.144;6.244;2024-01-06T00:05:20;28.70;;;22.38;;
51732;SDS011;39139;53.144;6.244;2024-01-06T00:07:46;24.25;;;20.90;;
51732;SDS011;39139;53.144;6.244;2024-01-06T00:10:12;27.52;;;21.63;;
51732;SDS011;39139;53.144;6.244;2024-01-06T00:12:37;25.63;;;20.52;;
51732;SDS011;39139;53.144;6.244;2024-01-06T00:15:03;27.23;;;20.67;;
51732;SDS011;39139;53.144;6.244;2024-01-06T00:17:29;27.55;;;20.85;;
51732;SDS011;39139;53.144;6.244;2024-01-06T00:19:55;25.75;;;20.63;;
51732;SDS011;39139;53.144;6.244;2024-01-06T00:22:20;22.15;;;17.98;;
51732;SDS011;39139;53.144;6.244;2024-01-06T00:24:46;24.23;;;20.25;;
51732;SDS011;39139;53.144;6.244;2024-01-06T00:27:11;25.17;;;19.20;;
51732;SDS011;39139;53.144;6.244;2024-01-06T00:29:38;22.15;;;18.73;;
51732;SDS011;39139;53.144;6.244;2024-01-06T00:32:04;22.05;;;19.58;;
51732;SDS011;39139;53.144;6.244;2024-01-06T00:34:30;25.65;;;19.45;;
51732;SDS011;39139;53.144;6.244;2024-01-06T00:36:56;29.67;;;20.17;;
51732;SDS011;39139;53.144;6.244;2024-01-06T00:39:21;20.70;;;17.48;;
51732;SDS011;39139;53.144;6.244;2024-01-06T00:41:47;23.52;;;17.90;;
51732;SDS011;39139;53.144;6.244;2024-01-06T00:44:12;23.42;;;18.67;;
51732;SDS011;39139;53.144;6.244;2024-01-06T00:46:38;23.13;;;17.95;;
51732;SDS011;39139;53.144;6.244;2024-01-06T00:49:04;23.00;;;19.00;;
51732;SDS011;39139;53.144;6.244;2024-01-06T00:51:30;23.58;;;18.15;;
51732;SDS011;39139;53.144;6.244;2024-01-06T00:53:56;21.33;;;16.70;;
51732;SDS011;39139;53.144;6.244;2024-01-06T00:56:22;25.58;;;17.52;;
51732;SDS011;39139;53.144;6.244;2024-01-06T00:58:47;24.20;;;18.15;;
51732;SDS011;39139;53.144;6.244;2024-01-06T01:01:13;21.55;;;19.02;;
51732;SDS011;39139;53.144;6.244;2024-01-06T01:03:39;23.95;;;17.38;;
51732;SDS011;39139;53.144;6.244;2024-01-06T01:06:04;25.05;;;17.60;;
51732;SDS011;39139;53.144;6.244;2024-01-06T01:08:30;22.95;;;17.88;;
51732;SDS011;39139;53.144;6.244;2024-01-06T01:10:56;25.02;;;18.92;;
51732;SDS011;39139;53.144;6.244;2024-01-06T01:13:22;27.27;;;18.23;;
51732;SDS011;39139;53.144;6.244;2024-01-06T01:15:48;30.48;;;17.98;;
51732;SDS011;39139;53.144;6.244;2024-01-06T01:18:13;24.02;;;16.92;;
51732;SDS011;39139;53.144;6.244;2024-01-06T01:20:39;28.45;;;18.05;;
51732;SDS011;39139;53.144;6.244;2024-01-06T01:23:07;23.63;;;17.33;;
51732;SDS011;39139;53.144;6.244;2024-01-06T01:25:33;20.58;;;17.23;;
51732;SDS011;39139;53.144;6.244;2024-01-06T01:27:58;25.55;;;18.38;;
51732;SDS011;39139;53.144;6.244;2024-01-06T01:30:24;25.92;;;17.30;;
51732;SDS011;39139;53.144;6.244;2024-01-06T01:32:49;22.88;;;17.10;;
51732;SDS011;39139;53.144;6.244;2024-01-06T01:35:15;22.75;;;15.88;;
51732;SDS011;39139;53.144;6.244;2024-01-06T01:37:41;19.30;;;15.98;;
51732;SDS011;39139;53.144;6.244;2024-01-06T01:40:07;22.42;;;16.42;;
51732;SDS011;39139;53.144;6.244;2024-01-06T01:42:33;23.35;;;16.55;;
51732;SDS011;39139;53.144;6.244;2024-01-06T01:44:59;21.17;;;15.40;;
51732;SDS011;39139;53.144;6.244;2024-01-06T01:47:24;21.33;;;16.38;;
51732;SDS011;39139;53.144;6.244;2024-01-06T01:49:52;21.95;;;16.55;;
51732;SDS011;39139;53.144;6.244;2024-01-06T01:52:19;23.30;;;16.58;;
51732;SDS011;39139;53.144;6.244;2024-01-06T01:54:45;26.20;;;16.65;;
51732;SDS011;39139;53.144;6.244;2024-01-06T01:57:11;21.90;;;15.15;;
51732;SDS011;39139;53.144;6.244;2024-01-06T01:59:38;22.13;;;14.70;;
51732;SDS011;39139;53.144;6.244;2024-01-06T02:02:05;21.73;;;15.65;;
51732;SDS011;39139;53.144;6.244;2024-01-06T02:04:31;20.15;;;15.30;;
51732;SDS011;39139;53.144;6.244;2024-01-06T02:06:57;20.70;;;16.17;;
51732;SDS011;39139;53.144;6.244;2024-01-06T02:09:22;22.13;;;15.63;;
51732;SDS011;39139;53.144;6.244;2024-01-06T02:11:52;22.25;;;15.95;;
51732;SDS011;39139;53.144;6.244;2024-01-06T02:14:18;22.10;;;15.45;;
51732;SDS011;39139;53.144;6.244;2024-01-06T02:16:43;22.55;;;16.75;;
51732;SDS011;39139;53.144;6.244;2024-01-06T02:19:09;19.95;;;15.18;;
51732;SDS011;39139;53.144;6.244;2024-01-06T02:21:39;22.40;;;16.23;;
51732;SDS011;39139;53.144;6.244;2024-01-06T02:24:09;20.65;;;16.27;;
51732;SDS011;39139;53.144;6.244;2024-01-06T02:26:35;19.98;;;15.00;;
51732;SDS011;39139;53.144;6.244;2024-01-06T02:29:00;21.67;;;15.50;;
51732;SDS011;39139;53.144;6.244;2024-01-06T02:31:26;20.40;;;15.00;;
51732;SDS011;39139;53.144;6.244;2024-01-06T02:33:52;21.20;;;16.00;;
51732;SDS011;39139;53.144;6.244;2024-01-06T02:36:18;24.52;;;15.55;;
51732;SDS011;39139;53.144;6.244;2024-01-06T02:38:44;21.77;;;15.10;;
51732;SDS011;39139;53.144;6.244;2024-01-06T02:41:09;19.77;;;14.55;;
51732;SDS011;39139;53.144;6.244;2024-01-06T02:43:35;19.88;;;14.38;;
51732;SDS011;39139;53.144;6.244;2024-01-06T02:46:02;18.25;;;13.93;;
51732;SDS011;39139;53.144;6.244;2024-01-06T02:48:27;19.70;;;14.02;;
51732;SDS011;39139;53.144;6.244;2024-01-06T02:50:55;18.65;;;13.93;;
51732;SDS011;39139;53.144;6.244;2024-01-06T02:53:21;19.73;;;14.40;;
51732;SDS011;39139;53.144;6.244;2024-01-06T02:55:47;20.40;;;15.13;;
51732;SDS011;39139;53.144;6.244;2024-01-06T02:58:12;17.23;;;12.43;;
51732;SDS011;39139;53.144;6.244;2024-01-06T03:00:38;20.00;;;14.48;;
51732;SDS011;39139;53.144;6.244;2024-01-06T03:03:03;17.77;;;13.52;;
51732;SDS011;39139;53.144;6.244;2024-01-06T03:05:29;24.45;;;15.35;;
51732;SDS011;39139;53.144;6.244;2024-01-06T03:07:55;21.65;;;14.52;;
51732;SDS011;39139;53.144;6.244;2024-01-06T03:10:20;20.48;;;15.02;;
51732;SDS011;39139;53.144;6.244;2024-01-06T03:12:46;21.65;;;16.13;;
51732;SDS011;39139;53.144;6.244;2024-01-06T03:15:14;23.38;;;16.08;;
51732;SDS011;39139;53.144;6.244;2024-01-06T03:17:40;22.65;;;16.95;;
51732;SDS011;39139;53.144;6.244;2024-01-06T03:20:05;26.38;;;16.83;;
51732;SDS011;39139;53.144;6.244;2024-01-06T03:22:32;24.70;;;18.45;;
51732;SDS011;39139;53.144;6.244;2024-01-06T03:24:58;24.83;;;17.40;;
51732;SDS011;39139;53.144;6.244;2024-01-06T03:27:23;24.00;;;18.08;;
51732;SDS011;39139;53.144;6.244;2024-01-06T03:29:49;29.75;;;19.02;;
51732;SDS011;39139;53.144;6.244;2024-01-06T03:32:15;29.60;;;17.58;;
51732;SDS011;39139;53.144;6.244;2024-01-06T03:34:41;23.77;;;16.45;;
51732;SDS011;39139;53.144;6.244;2024-01-06T03:37:06;24.33;;;16.52;;
51732;SDS011;39139;53.144;6.244;2024-01-06T03:39:32;22.95;;;15.60;;
51732;SDS011;39139;53.144;6.244;2024-01-06T03:41:57;22.95;;;16.58;;
51732;SDS011;39139;53.144;6.244;2024-01-06T03:44:24;25.30;;;17.48;;
51732;SDS011;39139;53.144;6.244;2024-01-06T03:46:50;24.30;;;16.95;;
51732;SDS011;39139;53.144;6.244;2024-01-06T03:49:16;23.20;;;16.92;;
51732;SDS011;39139;53.144;6.244;2024-01-06T03:51:43;24.80;;;16.02;;
51732;SDS011;39139;53.144;6.244;2024-01-06T03:54:09;21.38;;;15.77;;
51732;SDS011;39139;53.144;6.244;2024-01-06T03:56:34;24.20;;;16.58;;
51732;SDS011;39139;53.144;6.244;2024-01-06T03:59:00;22.95;;;16.80;;
51732;SDS011;39139;53.144;6.244;2024-01-06T04:01:25;26.02;;;15.88;;
51732;SDS011;39139;53.144;6.244;2024-01-06T04:03:51;17.65;;;13.18;;
51732;SDS011;39139;53.144;6.244;2024-01-06T04:06:17;19.42;;;15.35;;
51732;SDS011;39139;53.144;6.244;2024-01-06T04:08:42;22.45;;;15.93;;
51732;SDS011;39139;53.144;6.244;2024-01-06T04:11:08;19.02;;;13.90;;
51732;SDS011;39139;53.144;6.244;2024-01-06T04:13:33;21.75;;;14.13;;
51732;SDS011;39139;53.144;6.244;2024-01-06T04:15:59;21.27;;;15.88;;
51732;SDS011;39139;53.144;6.244;2024-01-06T04:18:25;20.17;;;14.57;;
51732;SDS011;39139;53.144;6.244;2024-01-06T04:20:50;21.52;;;15.05;;
51732;SDS011;39139;53.144;6.244;2024-01-06T04:23:16;24.60;;;14.23;;
51732;SDS011;39139;53.144;6.244;2024-01-06T04:25:41;19.95;;;14.98;;
51732;SDS011;39139;53.144;6.244;2024-01-06T04:28:07;22.75;;;15.43;;
51732;SDS011;39139;53.144;6.244;2024-01-06T04:30:32;24.00;;;15.75;;
51732;SDS011;39139;53.144;6.244;2024-01-06T04:32:58;22.45;;;15.52;;
51732;SDS011;39139;53.144;6.244;2024-01-06T04:35:23;24.13;;;15.98;;
51732;SDS011;39139;53.144;6.244;2024-01-06T04:37:50;21.85;;;15.40;;
51732;SDS011;39139;53.144;6.244;2024-01-06T04:40:16;22.42;;;14.60;;
51732;SDS011;39139;53.144;6.244;2024-01-06T04:42:42;22.02;;;15.68;;
51732;SDS011;39139;53.144;6.244;2024-01-06T04:45:07;18.52;;;13.82;;
51732;SDS011;39139;53.144;6.244;2024-01-06T04:47:33;19.40;;;14.35;;
51732;SDS011;39139;53.144;6.244;2024-01-06T04:49:59;21.15;;;14.70;;
51732;SDS011;39139;53.144;6.244;2024-01-06T04:52:24;24.58;;;15.07;;
51732;SDS011;39139;53.144;6.244;2024-01-06T04:54:50;19.48;;;13.98;;
51732;SDS011;39139;53.144;6.244;2024-01-06T04:57:15;19.00;;;13.45;;
51732;SDS011;39139;53.144;6.244;2024-01-06T04:59:41;18.90;;;13.50;;
51732;SDS011;39139;53.144;6.244;2024-01-06T05:02:07;19.48;;;13.77;;
51732;SDS011;39139;53.144;6.244;2024-01-06T05:04:32;18.88;;;12.73;;
51732;SDS011;39139;53.144;6.244;2024-01-06T05:06:58;19.30;;;13.88;;
51732;SDS011;39139;53.144;6.244;2024-01-06T05:09:27;16.25;;;13.40;;
51732;SDS011;39139;53.144;6.244;2024-01-06T05:11:53;17.48;;;12.82;;
51732;SDS011;39139;53.144;6.244;2024-01-06T05:14:18;20.45;;;14.50;;
51732;SDS011;39139;53.144;6.244;2024-01-06T05:16:44;19.67;;;12.70;;
51732;SDS011;39139;53.144;6.244;2024-01-06T05:19:09;18.63;;;12.93;;
51732;SDS011;39139;53.144;6.244;2024-01-06T05:21:35;18.13;;;12.32;;
51732;SDS011;39139;53.144;6.244;2024-01-06T05:24:01;17.45;;;12.85;;
51732;SDS011;39139;53.144;6.244;2024-01-06T05:26:28;15.82;;;11.30;;
51732;SDS011;39139;53.144;6.244;2024-01-06T05:28:53;16.67;;;12.35;;
51732;SDS011;39139;53.144;6.244;2024-01-06T05:31:19;17.17;;;12.57;;
51732;SDS011;39139;53.144;6.244;2024-01-06T05:33:45;19.10;;;12.02;;
51732;SDS011;39139;53.144;6.244;2024-01-06T05:36:10;18.05;;;12.80;;
51732;SDS011;39139;53.144;6.244;2024-01-06T05:38:36;18.00;;;13.18;;
51732;SDS011;39139;53.144;6.244;2024-01-06T05:41:02;19.70;;;13.07;;
51732;SDS011;39139;53.144;6.244;2024-01-06T05:43:27;19.52;;;13.07;;
51732;SDS011;39139;53.144;6.244;2024-01-06T05:45:53;16.92;;;13.05;;
51732;SDS011;39139;53.144;6.244;2024-01-06T05:48:18;19.95;;;13.25;;
51732;SDS011;39139;53.144;6.244;2024-01-06T05:50:44;16.23;;;12.70;;
51732;SDS011;39139;53.144;6.244;2024-01-06T05:53:10;23.45;;;12.45;;
51732;SDS011;39139;53.144;6.244;2024-01-06T05:55:35;18.60;;;12.38;;
51732;SDS011;39139;53.144;6.244;2024-01-06T05:58:01;18.27;;;12.52;;
51732;SDS011;39139;53.144;6.244;2024-01-06T06:00:27;18.25;;;13.50;;
51732;SDS011;39139;53.144;6.244;2024-01-06T06:02:53;19.67;;;14.55;;
51732;SDS011;39139;53.144;6.244;2024-01-06T06:05:18;21.75;;;14.27;;
51732;SDS011;39139;53.144;6.244;2024-01-06T06:07:45;21.27;;;14.50;;
51732;SDS011;39139;53.144;6.244;2024-01-06T06:10:11;20.02;;;14.80;;
51732;SDS011;39139;53.144;6.244;2024-01-06T06:12:37;21.85;;;14.95;;
51732;SDS011;39139;53.144;6.244;2024-01-06T06:15:04;18.10;;;15.02;;
51732;SDS011;39139;53.144;6.244;2024-01-06T06:17:31;22.15;;;16.13;;
51732;SDS011;39139;53.144;6.244;2024-01-06T06:20:00;20.63;;;14.90;;
51732;SDS011;39139;53.144;6.244;2024-01-06T06:22:25;24.13;;;14.93;;
51732;SDS011;39139;53.144;6.244;2024-01-06T06:24:55;20.17;;;15.50;;
51732;SDS011;39139;53.144;6.244;2024-01-06T06:27:24;19.48;;;14.80;;
51732;SDS011;39139;53.144;6.244;2024-01-06T06:29:50;23.88;;;15.45;;
51732;SDS011;39139;53.144;6.244;2024-01-06T06:32:15;21.80;;;15.10;;
51732;SDS011;39139;53.144;6.244;2024-01-06T06:34:41;23.00;;;14.27;;
51732;SDS011;39139;53.144;6.244;2024-01-06T06:37:07;29.02;;;15.02;;
51732;SDS011;39139;53.144;6.244;2024-01-06T06:39:33;21.73;;;16.50;;
51732;SDS011;39139;53.144;6.244;2024-01-06T06:42:00;24.48;;;16.25;;
51732;SDS011;39139;53.144;6.244;2024-01-06T06:44:26;22.25;;;14.80;;
51732;SDS011;39139;53.144;6.244;2024-01-06T06:46:52;19.42;;;15.50;;
51732;SDS011;39139;53.144;6.244;2024-01-06T06:49:18;19.58;;;14.50;;
51732;SDS011;39139;53.144;6.244;2024-01-06T06:51:43;22.65;;;14.43;;
51732;SDS011;39139;53.144;6.244;2024-01-06T06:54:13;21.05;;;15.57;;
51732;SDS011;39139;53.144;6.244;2024-01-06T06:56:40;18.23;;;13.60;;
51732;SDS011;39139;53.144;6.244;2024-01-06T06:59:06;20.20;;;14.32;;
51732;SDS011;39139;53.144;6.244;2024-01-06T07:01:32;20.67;;;15.40;;
51732;SDS011;39139;53.144;6.244;2024-01-06T07:03:59;21.70;;;14.15;;
51732;SDS011;39139;53.144;6.244;2024-01-06T07:06:24;20.13;;;14.43;;
51732;SDS011;39139;53.144;6.244;2024-01-06T07:08:50;23.88;;;15.10;;
51732;SDS011;39139;53.144;6.244;2024-01-06T07:11:15;20.30;;;13.98;;
51732;SDS011;39139;53.144;6.244;2024-01-06T07:13:43;19.88;;;14.77;;
51732;SDS011;39139;53.144;6.244;2024-01-06T07:16:09;20.58;;;14.05;;
51732;SDS011;39139;53.144;6.244;2024-01-06T07:18:36;22.92;;;16.20;;
51732;SDS011;39139;53.144;6.244;2024-01-06T07:21:04;22.13;;;14.75;;
51732;SDS011;39139;53.144;6.244;2024-01-06T07:23:31;18.77;;;14.87;;
51732;SDS011;39139;53.144;6.244;2024-01-06T07:25:57;18.77;;;15.07;;
51732;SDS011;39139;53.144;6.244;2024-01-06T07:28:23;25.13;;;15.85;;
51732;SDS011;39139;53.144;6.244;2024-01-06T07:30:48;24.73;;;16.02;;
51732;SDS011;39139;53.144;6.244;2024-01-06T07:33:14;21.48;;;15.80;;
51732;SDS011;39139;53.144;6.244;2024-01-06T07:35:40;20.33;;;14.75;;
51732;SDS011;39139;53.144;6.244;2024-01-06T07:38:11;26.05;;;15.40;;
51732;SDS011;39139;53.144;6.244;2024-01-06T07:40:38;25.95;;;16.35;;
51732;SDS011;39139;53.144;6.244;2024-01-06T07:43:04;25.88;;;16.17;;
51732;SDS011;39139;53.144;6.244;2024-01-06T07:45:32;22.85;;;15.90;;
51732;SDS011;39139;53.144;6.244;2024-01-06T07:47:58;24.00;;;15.85;;
51732;SDS011;39139;53.144;6.244;2024-01-06T07:50:24;22.52;;;14.65;;
51732;SDS011;39139;53.144;6.244;2024-01-06T07:52:50;23.25;;;15.50;;
51732;SDS011;39139;53.144;6.244;2024-01-06T07:55:16;23.23;;;16.45;;
51732;SDS011;39139;53.144;6.244;2024-01-06T07:57:43;21.55;;;16.98;;
51732;SDS011;39139;53.144;6.244;2024-01-06T08:00:10;25.83;;;16.45;;
51732;SDS011;39139;53.144;6.244;2024-01-06T08:02:40;24.67;;;16.25;;
51732;SDS011;39139;53.144;6.244;2024-01-06T08:05:08;24.70;;;16.85;;
51732;SDS011;39139;53.144;6.244;2024-01-06T08:07:34;26.35;;;19.15;;
51732;SDS011;39139;53.144;6.244;2024-01-06T08:10:00;23.88;;;18.05;;
51732;SDS011;39139;53.144;6.244;2024-01-06T08:12:26;26.20;;;18.50;;
51732;SDS011;39139;53.144;6.244;2024-01-06T08:14:51;24.50;;;18.73;;
51732;SDS011;39139;53.144;6.244;2024-01-06T08:17:17;23.95;;;17.10;;
51732;SDS011;39139;53.144;6.244;2024-01-06T08:19:43;25.85;;;17.75;;
51732;SDS011;39139;53.144;6.244;2024-01-06T08:22:14;24.40;;;17.77;;
51732;SDS011;39139;53.144;6.244;2024-01-06T08:24:40;24.05;;;18.33;;
51732;SDS011;39139;53.144;6.244;2024-01-06T08:27:05;26.35;;;18.50;;
51732;SDS011;39139;53.144;6.244;2024-01-06T08:29:31;26.58;;;18.42;;
51732;SDS011;39139;53.144;6.244;2024-01-06T08:31:57;31.70;;;18.50;;
51732;SDS011;39139;53.144;6.244;2024-01-06T08:34:22;24.00;;;19.48;;
51732;SDS011;39139;53.144;6.244;2024-01-06T08:36:48;29.08;;;18.85;;
51732;SDS011;39139;53.144;6.244;2024-01-06T08:39:13;24.75;;;18.63;;
51732;SDS011;39139;53.144;6.244;2024-01-06T08:41:39;27.65;;;19.17;;
51732;SDS011;39139;53.144;6.244;2024-01-06T08:44:04;24.58;;;19.23;;
51732;SDS011;39139;53.144;6.244;2024-01-06T08:46:30;24.38;;;19.00;;
51732;SDS011;39139;53.144;6.244;2024-01-06T08:48:56;29.00;;;19.23;;
51732;SDS011;39139;53.144;6.244;2024-01-06T08:51:21;29.17;;;19.83;;
51732;SDS011;39139;53.144;6.244;2024-01-06T08:53:49;29.35;;;20.50;;
51732;SDS011;39139;53.144;6.244;2024-01-06T08:56:14;25.77;;;19.40;;
51732;SDS011;39139;53.144;6.244;2024-01-06T08:58:42;26.92;;;19.85;;
51732;SDS011;39139;53.144;6.244;2024-01-06T09:01:08;33.70;;;20.27;;
51732;SDS011;39139;53.144;6.244;2024-01-06T09:03:34;26.08;;;20.45;;
51732;SDS011;39139;53.144;6.244;2024-01-06T09:05:59;22.67;;;19.38;;
51732;SDS011;39139;53.144;6.244;2024-01-06T09:08:25;26.83;;;19.92;;
51732;SDS011;39139;53.144;6.244;2024-01-06T09:10:51;32.45;;;20.85;;
51732;SDS011;39139;53.144;6.244;2024-01-06T09:13:20;30.13;;;21.88;;
51732;SDS011;39139;53.144;6.244;2024-01-06T09:15:46;30.00;;;20.90;;
51732;SDS011;39139;53.144;6.244;2024-01-06T09:18:12;32.40;;;21.60;;
51732;SDS011;39139;53.144;6.244;2024-01-06T09:20:38;29.35;;;21.58;;
51732;SDS011;39139;53.144;6.244;2024-01-06T09:23:03;28.50;;;21.73;;
51732;SDS011;39139;53.144;6.244;2024-01-06T09:25:29;28.88;;;22.00;;
51732;SDS011;39139;53.144;6.244;2024-01-06T09:27:55;27.38;;;21.38;;
51732;SDS011;39139;53.144;6.244;2024-01-06T09:30:20;30.40;;;21.42;;
51732;SDS011;39139;53.144;6.244;2024-01-06T09:32:46;27.50;;;21.85;;
51732;SDS011;39139;53.144;6.244;2024-01-06T09:35:12;27.42;;;20.73;;
51732;SDS011;39139;53.144;6.244;2024-01-06T09:37:37;27.35;;;20.52;;
51732;SDS011;39139;53.144;6.244;2024-01-06T09:40:03;30.00;;;20.58;;
51732;SDS011;39139;53.144;6.244;2024-01-06T09:42:29;25.90;;;19.83;;
51732;SDS011;39139;53.144;6.244;2024-01-06T09:44:54;27.75;;;18.98;;
51732;SDS011;39139;53.144;6.244;2024-01-06T09:47:22;26.23;;;20.77;;
51732;SDS011;39139;53.144;6.244;2024-01-06T09:49:49;24.30;;;18.95;;
51732;SDS011;39139;53.144;6.244;2024-01-06T09:52:15;28.17;;;18.83;;
51732;SDS011;39139;53.144;6.244;2024-01-06T09:54:51;32.33;;;20.15;;
51732;SDS011;39139;53.144;6.244;2024-01-06T09:57:18;24.08;;;18.85;;
51732;SDS011;39139;53.144;6.244;2024-01-06T09:59:44;29.50;;;20.58;;
51732;SDS011;39139;53.144;6.244;2024-01-06T10:02:10;24.90;;;18.00;;
51732;SDS011;39139;53.144;6.244;2024-01-06T10:07:05;23.50;;;16.95;;
51732;SDS011;39139;53.144;6.244;2024-01-06T10:09:31;25.27;;;18.83;;
51732;SDS011;39139;53.144;6.244;2024-01-06T10:11:57;23.05;;;18.45;;
51732;SDS011;39139;53.144;6.244;2024-01-06T10:14:24;24.90;;;17.73;;
51732;SDS011;39139;53.144;6.244;2024-01-06T10:16:53;24.85;;;18.70;;
51732;SDS011;39139;53.144;6.244;2024-01-06T10:19:19;21.88;;;17.15;;
51732;SDS011;39139;53.144;6.244;2024-01-06T10:21:45;24.10;;;17.05;;
51732;SDS011;39139;53.144;6.244;2024-01-06T10:24:11;21.08;;;17.30;;
51732;SDS011;39139;53.144;6.244;2024-01-06T10:26:36;20.67;;;16.77;;
51732;SDS011;39139;53.144;6.244;2024-01-06T10:29:02;20.02;;;16.60;;
51732;SDS011;39139;53.144;6.244;2024-01-06T10:31:29;23.27;;;17.02;;
51732;SDS011;39139;53.144;6.244;2024-01-06T10:33:55;24.50;;;17.08;;
51732;SDS011;39139;53.144;6.244;2024-01-06T10:36:22;25.50;;;17.98;;
51732;SDS011;39139;53.144;6.244;2024-01-06T10:38:48;20.73;;;17.15;;
51732;SDS011;39139;53.144;6.244;2024-01-06T10:41:15;20.80;;;16.73;;
51732;SDS011;39139;53.144;6.244;2024-01-06T10:43:42;21.38;;;15.73;;
51732;SDS011;39139;53.144;6.244;2024-01-06T10:46:08;17.23;;;14.27;;
51732;SDS011;39139;53.144;6.244;2024-01-06T10:48:36;18.88;;;14.40;;
51732;SDS011;39139;53.144;6.244;2024-01-06T10:51:10;19.27;;;14.32;;
51732;SDS011;39139;53.144;6.244;2024-01-06T10:53:37;21.10;;;15.10;;
51732;SDS011;39139;53.144;6.244;2024-01-06T10:56:05;18.10;;;14.48;;
51732;SDS011;39139;53.144;6.244;2024-01-06T10:58:33;18.60;;;14.05;;
51732;SDS011;39139;53.144;6.244;2024-01-06T11:01:08;20.30;;;13.20;;
51732;SDS011;39139;53.144;6.244;2024-01-06T11:03:36;16.52;;;13.68;;
51732;SDS011;39139;53.144;6.244;2024-01-06T11:06:03;20.27;;;13.45;;
51732;SDS011;39139;53.144;6.244;2024-01-06T11:08:30;18.30;;;13.85;;
51732;SDS011;39139;53.144;6.244;2024-01-06T11:10:58;17.05;;;13.90;;
51732;SDS011;39139;53.144;6.244;2024-01-06T11:13:24;15.73;;;12.52;;
51732;SDS011;39139;53.144;6.244;2024-01-06T11:15:51;15.30;;;13.45;;
51732;SDS011;39139;53.144;6.244;2024-01-06T11:18:30;16.20;;;13.93;;
51732;SDS011;39139;53.144;6.244;2024-01-06T11:23:39;15.73;;;12.30;;
51732;SDS011;39139;53.144;6.244;2024-01-06T11:26:06;16.70;;;12.02;;
51732;SDS011;39139;53.144;6.244;2024-01-06T11:28:38;16.13;;;11.65;;
51732;SDS011;39139;53.144;6.244;2024-01-06T11:31:11;18.48;;;12.93;;
51732;SDS011;39139;53.144;6.244;2024-01-06T11:33:43;15.13;;;12.57;;
51732;SDS011;39139;53.144;6.244;2024-01-06T11:36:12;15.45;;;11.73;;
51732;SDS011;39139;53.144;6.244;2024-01-06T11:38:40;12.55;;;10.55;;
51732;SDS011;39139;53.144;6.244;2024-01-06T11:41:06;17.30;;;11.27;;
51732;SDS011;39139;53.144;6.244;2024-01-06T11:43:33;13.52;;;10.52;;
51732;SDS011;39139;53.144;6.244;2024-01-06T11:46:00;13.68;;;10.93;;
51732;SDS011;39139;53.144;6.244;2024-01-06T11:48:29;11.73;;;9.77;;
51732;SDS011;39139;53.144;6.244;2024-01-06T11:50:56;10.10;;;8.93;;
51732;SDS011;39139;53.144;6.244;2024-01-06T11:53:23;11.13;;;9.52;;
51732;SDS011;39139;53.144;6.244;2024-01-06T11:55:52;12.15;;;10.15;;
51732;SDS011;39139;53.144;6.244;2024-01-06T11:58:17;13.93;;;9.40;;
51732;SDS011;39139;53.144;6.244;2024-01-06T12:00:43;13.20;;;10.10;;
51732;SDS011;39139;53.144;6.244;2024-01-06T12:03:09;12.07;;;10.23;;
51732;SDS011;39139;53.144;6.244;2024-01-06T12:05:35;12.07;;;10.45;;
51732;SDS011;39139;53.144;6.244;2024-01-06T12:08:01;14.88;;;11.68;;
51732;SDS011;39139;53.144;6.244;2024-01-06T12:10:31;11.95;;;10.57;;
51732;SDS011;39139;53.144;6.244;2024-01-06T12:13:01;12.52;;;11.07;;
51732;SDS011;39139;53.144;6.244;2024-01-06T12:15:28;13.15;;;10.63;;
51732;SDS011;39139;53.144;6.244;2024-01-06T12:17:55;13.43;;;11.13;;
51732;SDS011;39139;53.144;6.244;2024-01-06T12:20:22;13.48;;;11.73;;
51732;SDS011;39139;53.144;6.244;2024-01-06T12:22:48;13.35;;;11.13;;
51732;SDS011;39139;53.144;6.244;2024-01-06T12:25:16;11.95;;;10.02;;
51732;SDS011;39139;53.144;6.244;2024-01-06T12:27:42;13.43;;;11.02;;
51732;SDS011;39139;53.144;6.244;2024-01-06T12:30:12;11.05;;;9.85;;
51732;SDS011;39139;53.144;6.244;2024-01-06T12:32:41;12.02;;;10.23;;
51732;SDS011;39139;53.144;6.244;2024-01-06T12:35:08;12.15;;;10.82;;
51732;SDS011;39139;53.144;6.244;2024-01-06T12:37:35;13.70;;;10.50;;
51732;SDS011;39139;53.144;6.244;2024-01-06T12:40:01;11.63;;;10.18;;
51732;SDS011;39139;53.144;6.244;2024-01-06T12:42:27;12.52;;;10.32;;
51732;SDS011;39139;53.144;6.244;2024-01-06T12:44:52;12.05;;;10.68;;
51732;SDS011;39139;53.144;6.244;2024-01-06T12:47:18;11.02;;;9.93;;
51732;SDS011;39139;53.144;6.244;2024-01-06T12:49:44;12.40;;;10.38;;
51732;SDS011;39139;53.144;6.244;2024-01-06T12:52:09;11.85;;;10.48;;
51732;SDS011;39139;53.144;6.244;2024-01-06T12:54:35;11.85;;;10.63;;
51732;SDS011;39139;53.144;6.244;2024-01-06T12:57:00;11.18;;;9.90;;
51732;SDS011;39139;53.144;6.244;2024-01-06T12:59:26;11.25;;;9.85;;
51732;SDS011;39139;53.144;6.244;2024-01-06T13:01:52;10.07;;;8.75;;
51732;SDS011;39139;53.144;6.244;2024-01-06T13:04:17;11.05;;;9.70;;
51732;SDS011;39139;53.144;6.244;2024-01-06T13:06:43;13.13;;;7.82;;
51732;SDS011;39139;53.144;6.244;2024-01-06T13:09:09;9.45;;;8.00;;
51732;SDS011;39139;53.144;6.244;2024-01-06T13:11:41;10.70;;;8.52;;
51732;SDS011;39139;53.144;6.244;2024-01-06T13:14:07;10.57;;;7.82;;
51732;SDS011;39139;53.144;6.244;2024-01-06T13:16:32;12.52;;;8.75;;
51732;SDS011;39139;53.144;6.244;2024-01-06T13:18:58;9.23;;;8.32;;
51732;SDS011;39139;53.144;6.244;2024-01-06T13:21:24;8.88;;;7.30;;
51732;SDS011;39139;53.144;6.244;2024-01-06T13:23:50;10.57;;;8.70;;
51732;SDS011;39139;53.144;6.244;2024-01-06T13:26:15;9.75;;;7.93;;
51732;SDS011;39139;53.144;6.244;2024-01-06T13:28:41;10.20;;;8.68;;
51732;SDS011;39139;53.144;6.244;2024-01-06T13:31:07;11.38;;;9.55;;
51732;SDS011;39139;53.144;6.244;2024-01-06T13:33:34;10.45;;;7.65;;
51732;SDS011;39139;53.144;6.244;2024-01-06T13:36:00;9.52;;;8.13;;
51732;SDS011;39139;53.144;6.244;2024-01-06T13:38:26;9.82;;;8.23;;
51732;SDS011;39139;53.144;6.244;2024-01-06T13:40:52;11.18;;;8.43;;
51732;SDS011;39139;53.144;6.244;2024-01-06T13:43:18;9.98;;;8.35;;
51732;SDS011;39139;53.144;6.244;2024-01-06T13:45:44;10.23;;;8.32;;
51732;SDS011;39139;53.144;6.244;2024-01-06T13:48:09;9.38;;;7.65;;
51732;SDS011;39139;53.144;6.244;2024-01-06T13:50:35;10.32;;;8.05;;
51732;SDS011;39139;53.144;6.244;2024-01-06T13:53:01;11.57;;;9.23;;
51732;SDS011;39139;53.144;6.244;2024-01-06T13:55:28;11.13;;;8.70;;
51732;SDS011;39139;53.144;6.244;2024-01-06T13:57:53;10.07;;;8.70;;
51732;SDS011;39139;53.144;6.244;2024-01-06T14:00:19;11.35;;;8.88;;
51732;SDS011;39139;53.144;6.244;2024-01-06T14:02:45;10.60;;;8.68;;
51732;SDS011;39139;53.144;6.244;2024-01-06T14:05:14;10.98;;;9.00;;
51732;SDS011;39139;53.144;6.244;2024-01-06T14:07:40;9.23;;;8.25;;
51732;SDS011;39139;53.144;6.244;2024-01-06T14:12:36;13.27;;;8.90;;
51732;SDS011;39139;53.144;6.244;2024-01-06T14:15:02;13.45;;;9.18;;
51732;SDS011;39139;53.144;6.244;2024-01-06T14:17:28;10.65;;;8.35;;
51732;SDS011;39139;53.144;6.244;2024-01-06T14:19:54;12.35;;;8.88;;
51732;SDS011;39139;53.144;6.244;2024-01-06T14:22:19;10.75;;;9.50;;
51732;SDS011;39139;53.144;6.244;2024-01-06T14:24:45;12.65;;;9.32;;